الصفحة الرئيسية
METAR-TAF:

METAR-TAF

مطار :

توسان, أريزونا, الولايات المتحدة

دائرة عرض: 32-08-32N, خط طول: 111-10-28W, ارتفاع: 737 متر

مراقبة الطقس الحالي

تاريخ ووقت الإصدار 8ساعات و 23 دقيقة قبل الساعة 02:45UTC
ريح 5 عقدة من الشمال
درجة الحرارة 32°درجة مئوية
الرطوبة 10%
ضغط 1015 hPa
الرؤية: 16.1 كم
سماء صافية

METAR: KRYN 290245Z 35005KT 10SM CLR 32/M03 A2998

زمن: 04:08 (11:08 UTC)


TAF: مفقودة

أرصاد الطقس والتوقعات من أكثر من 4000 مطار (تقارير الطقس للمطار METAR والتنبؤ بالطقس بالمطارTAF).

المحطات المتاحة هي النقط الصفراء والحمراء على الخريطة.

حرك المؤشر فوق النقطة لمعرفة اسم المحطة.

ثم انقر لمعرفة أرصاد وتوقعات الطقس.

لتغيير الخارطة: اضغط على الأزرار الخضراء مع رمز الصليب الأسود للتكبير. على الزر الأخضر مع شرطة للتصغير، أو على الأسهم الخضراء للخرائط المجاورة.


METAR-TAF: